Portada
METAR-TAF:

METAR-TAF

Aeroports :

Aeroport Andorra - la Seu d'Urgell

La Seu d'Urgell, Espanya

latitud: 42-20-29N, longitud: 001-24-17E, altitud: 802 m

Observació

L'informe es va fer fa 27 minuts, a les 09:30 UTC
Vent 2 kt amb direcció variable
Temperatura 11°C
Humitat 35%
Pressió 1026 hPa
Visibilitat 10 km o més
sense núvols per sota de 1500 mi sense presència de cumulonimbus.

METAR: LESU 240930Z VRB02KT CAVOK 11/M04 Q1026

Hora: 10:57 (09:57 UTC)

Pronòstic

L'informe es va fer fa 1 hora i 57 minuts, a les 08:00 UTC
Pronòstic vàlid del 24 a les 09 UTC al 25 a les 09 UTC
Vent 3 kt amb direcció variable
Visibilitat 10 km o més
Escasses núvols a una alçada de 5000 ft
Temporalment
l' 24 a les 13 UTC al 24 a les 18 UTC
Vent 7 kt del Nord

TAF: LESU 240800Z 2409/2509 VRB03KT 9999 FEW050 TX23/2414Z TN00/2506Z TEMPO 2413/2418 01007KT

Observacions i pronòstics meteorològics de més de 4000 aeroports (METAR i TAF).

Les estacions disponibles són els punts grocs i vermells al mapa.

Posi el ratolí al punt desitjat per veure el nom de l'estació.

Feu clic per veure les observacions i els pronòstics meteorològics.

Per canviar el mapa: feu clic els botons verds amb una creu de color negre per apropar; al botó verd amb un guió per allunyar la imatge; o en les fletxes verdes per a mapes adjacents.


METAR-TAF: